createdAt,value
2022-12-13T00:02:47.115Z,6.17
2022-12-13T00:07:49.734Z,6.00
2022-12-13T00:12:52.007Z,6.17
2022-12-13T00:17:54.237Z,4.53
2022-12-13T00:22:57.499Z,4.27
2022-12-13T00:27:59.726Z,4.90
2022-12-13T00:33:01.986Z,5.70
2022-12-13T00:38:04.200Z,4.47
2022-12-13T00:43:06.438Z,4.67
2022-12-13T00:48:08.735Z,4.60
2022-12-13T00:53:10.952Z,4.37
2022-12-13T00:58:13.233Z,3.97
2022-12-13T01:03:25.358Z,4.90
2022-12-13T01:08:29.036Z,4.10
2022-12-13T01:13:31.713Z,4.70
2022-12-13T01:18:34.432Z,3.37
2022-12-13T01:23:36.907Z,3.67
2022-12-13T01:28:39.512Z,4.00
2022-12-13T01:33:41.984Z,3.50
2022-12-13T01:38:44.420Z,3.07
2022-12-13T01:43:46.950Z,3.90
2022-12-13T01:48:58.789Z,2.50
2022-12-13T01:54:03.345Z,3.80
2022-12-13T01:59:08.645Z,4.07
2022-12-13T02:04:11.574Z,3.20
2022-12-13T02:09:15.147Z,2.80
2022-12-13T02:14:17.445Z,3.83
2022-12-13T02:19:32.346Z,2.90
2022-12-13T02:25:09.008Z,3.33
2022-12-13T02:30:31.944Z,3.20
2022-12-13T02:35:44.850Z,3.40
2022-12-13T02:41:15.717Z,3.73
2022-12-13T02:46:21.984Z,3.17
2022-12-13T02:51:26.778Z,4.00
2022-12-13T02:56:30.559Z,3.60
2022-12-13T03:02:10.207Z,3.50
2022-12-13T03:07:29.934Z,3.97
2022-12-13T03:12:57.405Z,3.87
2022-12-13T03:18:05.159Z,3.70
2022-12-13T03:23:11.040Z,3.40
2022-12-13T03:28:13.583Z,3.63
2022-12-13T03:33:15.875Z,2.97
2022-12-13T03:38:22.555Z,3.23
2022-12-13T03:43:26.026Z,3.27
2022-12-13T03:48:28.265Z,2.80
2022-12-13T03:53:33.261Z,2.90
2022-12-13T03:58:38.250Z,2.50
2022-12-13T04:03:44.275Z,2.80
2022-12-13T04:08:46.556Z,1.10
2022-12-13T04:13:54.716Z,3.07
2022-12-13T04:18:56.968Z,3.23
2022-12-13T04:24:01.090Z,2.60
2022-12-13T04:29:03.634Z,3.03
2022-12-13T04:34:05.960Z,2.93
2022-12-13T04:39:21.726Z,2.10
2022-12-13T04:44:27.588Z,2.73
2022-12-13T04:49:32.432Z,2.60
2022-12-13T04:54:36.580Z,3.63
2022-12-13T04:59:40.041Z,3.50
2022-12-13T05:04:45.450Z,3.43
2022-12-13T05:09:47.687Z,4.60
2022-12-13T05:14:51.127Z,2.63
2022-12-13T05:19:53.422Z,2.97
2022-12-13T05:24:55.683Z,3.80
2022-12-13T05:30:03.640Z,4.67
2022-12-13T05:35:07.630Z,3.17
2022-12-13T05:40:10.762Z,6.13
2022-12-13T05:45:13.470Z,8.73
2022-12-13T05:50:17.772Z,8.63
2022-12-13T05:55:20.595Z,3.07
2022-12-13T06:00:29.804Z,3.23
2022-12-13T06:05:32.872Z,4.23
2022-12-13T06:10:35.625Z,4.50
2022-12-13T06:15:44.788Z,5.87
2022-12-13T06:21:00.206Z,4.20
2022-12-13T06:26:04.276Z,4.63
2022-12-13T06:31:06.631Z,4.40
2022-12-13T06:36:09.841Z,3.90
2022-12-13T06:41:16.948Z,5.93
2022-12-13T06:46:19.332Z,2.83
2022-12-13T06:51:22.963Z,4.53
2022-12-13T06:56:35.016Z,3.37
2022-12-13T07:01:37.904Z,5.30
2022-12-13T07:06:40.391Z,5.57
2022-12-13T07:11:45.801Z,3.80
2022-12-13T07:16:51.293Z,5.00
2022-12-13T07:21:53.584Z,4.50
2022-12-13T07:27:04.732Z,2.60
2022-12-13T07:32:06.987Z,11.93
2022-12-13T07:37:09.632Z,3.73
2022-12-13T07:42:32.040Z,5.83
2022-12-13T07:47:34.286Z,3.50
2022-12-13T07:52:36.507Z,3.70
2022-12-13T07:57:38.766Z,7.97
2022-12-13T08:02:41.861Z,5.93
2022-12-13T08:07:44.120Z,4.70
2022-12-13T08:12:46.502Z,4.77
2022-12-13T08:17:49.476Z,3.77
2022-12-13T08:23:02.095Z,5.73
2022-12-13T08:28:05.388Z,4.40
2022-12-13T08:33:07.964Z,4.00
2022-12-13T08:38:10.978Z,2.40
2022-12-13T08:43:13.303Z,3.53
2022-12-13T08:48:15.569Z,3.50
2022-12-13T08:53:28.768Z,3.60
2022-12-13T08:58:32.129Z,3.97
2022-12-13T09:03:34.701Z,3.30
2022-12-13T09:08:38.032Z,4.03
2022-12-13T09:13:43.278Z,4.43
2022-12-13T09:18:47.135Z,6.53
2022-12-13T09:24:01.876Z,4.40
2022-12-13T09:29:10.850Z,3.60
2022-12-13T09:34:13.967Z,3.30
2022-12-13T09:39:16.462Z,4.80
2022-12-13T09:44:31.116Z,5.47
2022-12-13T09:49:51.740Z,3.60
2022-12-13T09:54:57.185Z,4.80
2022-12-13T10:00:08.391Z,6.90
2022-12-13T10:05:39.049Z,4.17
2022-12-13T10:10:43.834Z,7.53
2022-12-13T10:15:54.802Z,4.03
2022-12-13T10:20:58.451Z,5.20
2022-12-13T10:26:03.404Z,5.57
2022-12-13T10:31:07.279Z,4.20
2022-12-13T10:36:16.118Z,4.43
2022-12-13T10:41:33.453Z,4.30
2022-12-13T10:46:38.269Z,6.83
2022-12-13T10:51:41.432Z,5.47
2022-12-13T10:56:51.371Z,4.90
2022-12-13T11:01:55.016Z,4.53
2022-12-13T11:06:59.878Z,5.93
2022-12-13T11:12:04.683Z,6.20
2022-12-13T11:17:09.055Z,4.67
2022-12-13T11:22:29.703Z,7.47
2022-12-13T11:28:05.685Z,7.07
2022-12-13T11:33:36.787Z,4.63
2022-12-13T11:39:08.781Z,5.00
2022-12-13T11:44:23.982Z,6.50
2022-12-13T11:49:45.734Z,7.93
2022-12-13T11:54:58.739Z,15.37
2022-12-13T12:00:34.503Z,6.40
2022-12-13T12:05:38.363Z,5.77
2022-12-13T12:10:49.972Z,6.20
2022-12-13T12:16:08.516Z,6.13
2022-12-13T12:21:20.639Z,6.20
2022-12-13T12:26:56.872Z,7.27
2022-12-13T12:32:14.366Z,8.03
2022-12-13T12:37:23.126Z,7.73
2022-12-13T12:43:13.914Z,8.67
2022-12-13T12:49:00.724Z,7.80
2022-12-13T12:53:59.062Z,8.20
2022-12-13T12:59:30.731Z,7.43
2022-12-13T13:04:42.306Z,7.40
2022-12-13T13:09:45.029Z,11.57
2022-12-13T13:14:47.334Z,10.27
2022-12-13T13:20:19.006Z,7.83
2022-12-13T13:25:32.280Z,15.00
2022-12-13T13:30:36.278Z,10.30
2022-12-13T13:35:50.217Z,7.40
2022-12-13T13:40:55.791Z,4.63
2022-12-13T13:46:11.661Z,5.73
2022-12-13T13:51:32.571Z,5.77
2022-12-13T13:56:55.728Z,6.07
2022-12-13T14:02:24.327Z,4.30
2022-12-13T14:08:01.220Z,6.47
2022-12-13T14:13:28.336Z,5.43
2022-12-13T14:18:58.944Z,5.20
2022-12-13T14:24:31.861Z,8.93
2022-12-13T14:29:40.101Z,9.27
2022-12-13T14:34:51.637Z,4.83
2022-12-13T14:39:54.626Z,6.87
2022-12-13T14:45:13.745Z,14.40
2022-12-13T14:50:18.408Z,6.67
2022-12-13T14:55:28.137Z,8.00
2022-12-13T15:00:39.061Z,6.80
2022-12-13T15:05:50.182Z,5.57
2022-12-13T15:10:59.594Z,5.63
2022-12-13T15:16:10.255Z,6.43
2022-12-13T15:21:24.632Z,5.63
2022-12-13T15:26:35.468Z,12.40
2022-12-13T15:31:40.640Z,5.60
2022-12-13T15:36:43.509Z,9.47
2022-12-13T15:41:51.175Z,9.13
2022-12-13T15:47:08.607Z,11.13
2022-12-13T15:52:13.989Z,10.37
2022-12-13T15:57:23.033Z,26.47
2022-12-13T16:02:25.568Z,14.20
2022-12-13T16:07:37.310Z,8.27
2022-12-13T16:12:47.922Z,10.50
2022-12-13T16:17:55.407Z,14.53
2022-12-13T16:23:09.188Z,11.83
2022-12-13T16:28:16.437Z,11.00
2022-12-13T16:33:26.411Z,12.57
2022-12-13T16:38:30.529Z,9.53
2022-12-13T16:43:37.566Z,17.33
2022-12-13T16:48:40.237Z,21.53
2022-12-13T16:53:42.449Z,7.13
2022-12-13T16:58:49.731Z,8.17
2022-12-13T17:03:52.817Z,9.20
2022-12-13T17:08:55.035Z,15.83
2022-12-13T17:13:58.829Z,25.87
2022-12-13T17:19:01.127Z,14.50
2022-12-13T17:24:03.524Z,23.00
2022-12-13T17:29:05.819Z,12.53
2022-12-13T17:34:08.128Z,13.80
2022-12-13T17:39:12.238Z,11.93
2022-12-13T17:44:14.539Z,12.30
2022-12-13T17:49:16.774Z,20.07
2022-12-13T17:54:19.781Z,15.83
2022-12-13T17:59:22.370Z,32.60
2022-12-13T18:04:24.689Z,30.27
2022-12-13T18:09:26.940Z,40.27
2022-12-13T18:14:30.263Z,29.93
2022-12-13T18:19:32.595Z,17.90
2022-12-13T18:24:34.823Z,26.07
2022-12-13T18:29:41.764Z,17.57
2022-12-13T18:34:57.593Z,22.63
2022-12-13T18:39:59.961Z,21.17
2022-12-13T18:45:02.320Z,22.00
2022-12-13T18:50:05.577Z,17.00
2022-12-13T18:55:08.183Z,18.50
2022-12-13T19:00:12.003Z,43.30
2022-12-13T19:05:14.405Z,20.07
2022-12-13T19:10:17.555Z,20.03
2022-12-13T19:15:19.982Z,18.60
2022-12-13T19:20:22.400Z,19.47
2022-12-13T19:25:24.728Z,28.30
2022-12-13T19:30:26.965Z,22.87
2022-12-13T19:35:29.219Z,48.60
2022-12-13T19:40:31.774Z,25.43
2022-12-13T19:45:34.329Z,79.83
2022-12-13T19:50:36.627Z,31.90
2022-12-13T19:55:45.566Z,22.97
2022-12-13T20:00:50.743Z,27.07
2022-12-13T20:06:00.022Z,25.67
2022-12-13T20:11:05.586Z,24.87
2022-12-13T20:16:18.293Z,41.40
2022-12-13T20:21:20.648Z,44.37
2022-12-13T20:26:25.677Z,43.53
2022-12-13T20:31:30.346Z,32.90
2022-12-13T20:36:32.925Z,28.67
2022-12-13T20:41:37.473Z,24.20
2022-12-13T20:46:40.637Z,38.53
2022-12-13T20:51:43.085Z,40.50
2022-12-13T20:56:45.339Z,34.80
2022-12-13T21:01:48.973Z,34.93
2022-12-13T21:06:51.668Z,26.97
2022-12-13T21:11:54.009Z,28.17
2022-12-13T21:16:58.480Z,26.73
2022-12-13T21:22:00.841Z,24.60
2022-12-13T21:27:03.208Z,28.33
2022-12-13T21:32:06.127Z,31.50
2022-12-13T21:37:08.511Z,33.97
2022-12-13T21:42:11.244Z,26.77
2022-12-13T21:47:13.993Z,31.27
2022-12-13T21:52:16.606Z,35.80
2022-12-13T21:57:37.531Z,35.27
2022-12-13T22:02:39.864Z,32.90
2022-12-13T22:07:42.223Z,44.83
2022-12-13T22:12:44.493Z,40.93
2022-12-13T22:17:46.721Z,42.80
2022-12-13T22:22:48.926Z,35.23
2022-12-13T22:27:51.452Z,41.37
2022-12-13T22:32:53.723Z,36.63
2022-12-13T22:38:01.286Z,35.27
2022-12-13T22:43:04.336Z,33.07
2022-12-13T22:48:06.606Z,31.70
2022-12-13T22:53:08.845Z,34.07
2022-12-13T22:58:11.114Z,31.33
2022-12-13T23:03:13.595Z,26.77
2022-12-13T23:08:15.803Z,29.47
2022-12-13T23:13:18.001Z,25.83
2022-12-13T23:18:20.270Z,27.60
2022-12-13T23:23:22.526Z,38.60
2022-12-13T23:28:24.995Z,36.87
2022-12-13T23:33:27.471Z,27.83
2022-12-13T23:38:29.913Z,30.77
2022-12-13T23:43:33.648Z,35.07
2022-12-13T23:48:36.224Z,35.90
2022-12-13T23:53:38.686Z,30.03
2022-12-13T23:58:42.574Z,32.30
